Terminal Aerodrome Forecast
Issued by NWS Buffalo, NY

Home | Current Version | Previous Version | Text Only | Print | Product List | Glossary On
Versions: 1 2 3 4 5 6 7 8 9 10 11 12 13 14 15 16 17 18 19 20 21 22 23 24 25 26 27
000
FTUS41 KBUF 221300 AAA
TAFROC
TAF AMD
KROC 221357Z 2214/2312 30013G19KT P6SM OVC030
     FM221500 29016G24KT P6SM OVC025
     FM222100 28013G20KT P6SM BKN035
     FM222300 28010KT P6SM BKN035
     FM230400 25007KT P6SM SCT035
     FM230900 23007KT P6SM BKN080=

USA.gov is the U.S. government's official web portal to all federal, state and local government web resources and services.